Time;durP1;ratioP1;P1;durP2;ratioP2;P2;SDS_P1;SDS_P2;PMS_P1;PMS_P2;Temp;Humidity;BMP_temperature;BMP_pressure;BME280_temperature;BME280_humidity;BME280_pressure;Samples;Min_cycle;Max_cycle;Signal;HPM_P1;HPM_P2
2022/05/13 00:06:14;;;;;;;3.70;3.00;;;13.10;74.80;;;;;;2616174;54;20405;-74
2022/05/13 00:12:02;;;;;;;7.40;3.70;;;13.10;78.00;;;;;;2615853;54;20250;-75
2022/05/13 00:17:55;;;;;;;6.67;3.50;;;13.00;80.30;;;;;;2617404;54;20414;-75
2022/05/13 00:23:42;;;;;;;3.33;3.03;;;12.90;81.60;;;;;;2617092;54;20411;-75
2022/05/13 00:29:31;;;;;;;7.23;3.20;;;12.60;84.40;;;;;;2616630;54;20743;-75
2022/05/13 00:35:21;;;;;;;8.10;3.83;;;12.50;91.80;;;;;;2616383;54;20150;-75
2022/05/13 00:41:09;;;;;;;4.87;3.50;;;12.50;91.50;;;;;;2616488;54;20390;-74
2022/05/13 00:46:57;;;;;;;3.50;3.07;;;12.40;94.60;;;;;;2615924;46;20465;-75
2022/05/13 00:52:49;;;;;;;5.97;2.70;;;12.50;93.90;;;;;;2616412;54;20411;-75
2022/05/13 00:58:59;;;;;;;5.63;5.13;;;12.60;92.30;;;;;;2616919;54;20395;-75
2022/05/13 01:08:59;;;;;;;3.93;2.97;;;12.30;96.60;;;;;;2615075;54;20484;-75
2022/05/13 01:32:59;;;;;;;5.47;3.80;;;11.60;99.90;;;;;;2614607;54;20382;-75
2022/05/13 01:39:06;;;;;;;8.70;4.80;;;11.40;99.90;;;;;;2615915;54;20762;-77
2022/05/13 01:45:12;;;;;;;6.20;4.77;;;11.20;99.90;;;;;;2616883;46;20413;-75
2022/05/13 01:51:20;;;;;;;6.37;4.40;;;11.20;99.90;;;;;;2615875;54;20302;-75
2022/05/13 01:57:26;;;;;;;5.23;4.00;;;11.20;99.90;;;;;;2616554;54;20467;-74
2022/05/13 02:04:11;;;;;;;7.90;4.13;;;11.30;99.90;;;;;;2616404;54;20779;-74
2022/05/13 02:06:37;;;;;;;7.23;4.67;;;11.20;99.90;;;;;;2617549;54;20916;-75
2022/05/13 02:12:24;;;;;;;6.23;4.70;;;11.10;99.90;;;;;;2617546;54;21245;-74
2022/05/13 02:18:12;;;;;;;7.70;4.90;;;10.90;99.90;;;;;;2617696;54;20230;-74
2022/05/13 02:24:01;;;;;;;11.23;4.77;;;10.80;99.90;;;;;;2617189;54;20151;-75
2022/05/13 02:29:49;;;;;;;11.63;4.27;;;10.80;99.90;;;;;;2618025;54;20445;-74
2022/05/13 02:35:37;;;;;;;10.97;5.47;;;10.60;99.90;;;;;;2616422;47;20384;-74
2022/05/13 02:41:25;;;;;;;5.00;4.50;;;10.60;99.90;;;;;;2616973;54;20219;-75
2022/05/13 02:58:02;;;;;;;5.60;5.00;;;10.30;99.90;;;;;;2615623;54;20419;-75
2022/05/13 03:04:09;;;;;;;5.63;5.13;;;10.30;99.90;;;;;;2615511;54;20190;-76
2022/05/13 03:06:37;;;;;;;8.50;5.30;;;10.20;99.90;;;;;;2615609;46;20410;-75
2022/05/13 03:12:25;;;;;;;9.20;5.70;;;10.10;99.90;;;;;;2615012;47;20404;-75
2022/05/13 03:29:02;;;;;;;8.33;3.50;;;10.80;99.90;;;;;;2615350;54;20445;-75
2022/05/13 03:38:30;;;;;;;3.90;3.57;;;11.20;99.90;;;;;;2615435;54;20396;-75
2022/05/13 03:44:18;;;;;;;13.23;3.63;;;11.30;99.90;;;;;;2616068;54;20984;-75
2022/05/13 03:50:07;;;;;;;5.50;3.70;;;11.20;99.90;;;;;;2616381;47;20161;-75
2022/05/13 03:55:55;;;;;;;3.87;3.57;;;11.20;99.90;;;;;;2615917;54;21229;-75
2022/05/13 04:01:42;;;;;;;4.50;3.70;;;11.20;99.90;;;;;;2615323;54;20920;-75
2022/05/13 04:04:08;;;;;;;7.00;4.27;;;11.10;99.90;;;;;;2615485;54;20415;-76
2022/05/13 04:19:24;;;;;;;9.07;3.70;;;11.00;99.90;;;;;;2616783;54;20404;-75
2022/05/13 04:25:12;;;;;;;6.07;4.67;;;11.00;99.90;;;;;;2615519;47;20462;-75
2022/05/13 04:31:00;;;;;;;7.17;3.90;;;11.00;99.90;;;;;;2615210;47;20674;-75
2022/05/13 04:36:48;;;;;;;6.97;4.10;;;11.20;99.90;;;;;;2613698;54;20230;-76
2022/05/13 04:49:01;;;;;;;5.87;3.30;;;11.40;99.90;;;;;;2615214;54;20483;-75
2022/05/13 04:54:49;;;;;;;7.63;3.23;;;11.40;99.90;;;;;;2615501;54;20535;-74
2022/05/13 05:00:37;;;;;;;5.13;3.60;;;11.30;99.90;;;;;;2614789;54;20169;-76
2022/05/13 05:10:07;;;;;;;10.37;4.10;;;11.50;99.90;;;;;;2615409;54;20429;-76
2022/05/13 05:16:15;;;;;;;4.77;3.20;;;11.60;99.90;;;;;;2616029;54;20426;-75
2022/05/13 05:22:22;;;;;;;5.97;3.27;;;11.80;99.90;;;;;;2616261;54;20381;-78
2022/05/13 05:28:29;;;;;;;6.33;3.33;;;12.10;99.90;;;;;;2617747;54;20154;-77
2022/05/13 05:34:36;;;;;;;7.83;4.50;;;12.20;99.90;;;;;;2617409;54;20515;-76
2022/05/13 05:40:43;;;;;;;7.13;3.90;;;11.90;99.90;;;;;;2617694;54;20403;-77
2022/05/13 05:46:50;;;;;;;6.60;4.93;;;12.30;99.90;;;;;;2617227;54;20415;-76
2022/05/13 05:52:56;;;;;;;8.17;4.50;;;12.90;99.90;;;;;;2615473;54;20299;-76
2022/05/13 05:59:04;;;;;;;5.70;2.97;;;13.20;99.90;;;;;;2615845;54;20219;-77
2022/05/13 06:05:10;;;;;;;13.07;5.00;;;13.40;99.90;;;;;;2615818;39;20885;-76
2022/05/13 06:11:17;;;;;;;7.37;4.50;;;14.00;99.80;;;;;;2615389;54;20146;-77
2022/05/13 06:17:23;;;;;;;12.67;4.13;;;14.70;91.40;;;;;;2614890;54;20424;-76
2022/05/13 06:23:29;;;;;;;10.00;4.00;;;14.50;91.20;;;;;;2614181;54;20168;-77
2022/05/13 06:29:36;;;;;;;6.57;4.17;;;14.80;85.90;;;;;;2616510;54;20391;-77
2022/05/13 06:35:43;;;;;;;8.77;4.43;;;15.10;79.70;;;;;;2616520;54;20177;-77
2022/05/13 06:41:50;;;;;;;8.80;4.90;;;15.20;78.50;;;;;;2616868;54;20404;-76
2022/05/13 06:47:57;;;;;;;5.77;4.10;;;15.40;68.90;;;;;;2616938;54;20174;-76
2022/05/13 06:54:06;;;;;;;6.10;3.90;;;15.80;66.90;;;;;;2616628;54;20199;-76
2022/05/13 07:00:13;;;;;;;9.93;4.73;;;15.70;63.40;;;;;;2616480;54;20484;-76
2022/05/13 07:09:59;;;;;;;6.77;3.53;;;15.70;63.10;;;;;;2615786;54;20415;-76
2022/05/13 07:16:05;;;;;;;12.40;4.87;;;15.20;65.80;;;;;;2615560;54;20240;-76
2022/05/13 07:22:11;;;;;;;7.60;4.20;;;15.10;70.60;;;;;;2615408;54;20299;-76
2022/05/13 07:28:17;;;;;;;9.33;4.67;;;15.30;72.50;;;;;;2614741;54;20150;-76
2022/05/13 07:34:24;;;;;;;6.23;4.23;;;15.50;62.60;;;;;;2615193;39;20611;-76
2022/05/13 07:46:55;;;;;;;4.80;3.50;;;16.10;57.40;;;;;;2616245;54;20541;-76
2022/05/13 07:53:02;;;;;;;7.57;4.30;;;16.40;49.40;;;;;;2616577;54;20775;-77
2022/05/13 07:59:09;;;;;;;4.97;3.50;;;16.90;49.80;;;;;;2616883;54;20451;-76
2022/05/13 08:05:16;;;;;;;7.40;3.60;;;16.90;41.00;;;;;;2616946;54;20379;-75
2022/05/13 08:11:29;;;;;;;7.33;3.00;;;17.70;37.10;;;;;;2616329;54;20991;-76
2022/05/13 08:17:36;;;;;;;12.50;4.47;;;17.00;42.30;;;;;;2616413;54;20396;-76
2022/05/13 08:23:42;;;;;;;6.00;3.70;;;16.70;45.10;;;;;;2616445;54;20271;-76
2022/05/13 08:29:49;;;;;;;4.70;4.10;;;17.20;42.80;;;;;;2616366;54;20163;-76
2022/05/13 08:36:00;;;;;;;3.57;2.97;;;18.00;32.80;;;;;;2617620;54;20152;-76
2022/05/13 08:42:07;;;;;;;6.33;3.83;;;18.30;30.40;;;;;;2616931;39;20788;-76
2022/05/13 08:48:17;;;;;;;6.17;3.80;;;18.70;25.60;;;;;;2617416;39;20785;-76
2022/05/13 08:54:30;;;;;;;6.87;4.37;;;18.50;24.20;;;;;;2616993;54;20537;-76
2022/05/13 09:00:41;;;;;;;8.43;5.17;;;19.20;19.90;;;;;;2618149;39;20806;-76
2022/05/13 09:10:30;;;;;;;5.97;3.50;;;19.70;8.00;;;;;;2616954;54;20452;-76
2022/05/13 09:23:16;;;;;;;7.60;3.20;;;19.40;4.10;;;;;;2615980;54;20403;-78
2022/05/13 09:29:22;;;;;;;3.83;3.27;;;19.10;3.10;;;;;;2616227;54;21191;-76
2022/05/13 09:35:41;;;;;;;4.47;3.03;;;18.50;6.60;;;;;;2616560;54;20189;-76
2022/05/13 09:41:48;;;;;;;3.67;3.07;;;19.10;3.10;;;;;;2616086;54;20409;-75
2022/05/13 09:48:01;;;;;;;6.07;4.23;;;19.20;5.60;;;;;;2615796;54;20397;-75
2022/05/13 10:04:50;;;;;;;7.63;3.43;;;19.00;1.60;;;;;;2614447;39;20748;-76
2022/05/13 10:14:40;;;;;;;5.17;3.90;;;18.90;2.20;;;;;;2615426;54;20454;-75
2022/05/13 10:31:13;;;;;;;6.93;3.53;;;17.70;4.00;;;;;;2615150;54;20388;-75
2022/05/13 11:19:59;;;;;;;5.27;4.87;;;18.40;3.80;;;;;;2615690;54;20404;-76
2022/05/13 11:39:39;;;;;;;7.63;4.87;;;19.80;1.00;;;;;;2614789;46;20418;-76
2022/05/13 11:52:16;;;;;;;6.00;5.40;;;19.50;1.00;;;;;;2616376;54;20405;-76
2022/05/13 11:58:06;;;;;;;5.97;5.50;;;19.50;1.00;;;;;;2616712;54;20152;-75
2022/05/13 12:04:12;;;;;;;11.53;6.17;;;18.80;1.00;;;;;;2616193;47;20400;-76
2022/05/13 12:10:05;;;;;;;6.97;6.47;;;19.60;1.00;;;;;;2615733;54;20448;-76
2022/05/13 12:20:12;;;;;;;8.70;5.97;;;19.50;1.00;;;;;;2616556;54;20844;-76
2022/05/13 12:26:24;;;;;;;7.50;6.90;;;19.30;1.00;;;;;;2616116;54;20411;-76
2022/05/13 13:00:36;;;;;;;8.83;7.27;;;21.20;1.00;;;;;;2616882;54;20491;-77
2022/05/13 13:06:47;;;;;;;7.80;7.30;;;20.10;1.00;;;;;;2616987;54;20426;-78
2022/05/13 13:19:51;;;;;;;6.47;5.97;;;20.40;1.00;;;;;;2616564;54;20405;-76
2022/05/13 13:29:36;;;;;;;7.77;7.00;;;21.50;1.00;;;;;;2615641;47;20400;-77
2022/05/13 13:46:20;;;;;;;15.20;7.40;;;20.30;1.00;;;;;;2616405;54;20391;-77
2022/05/13 13:52:32;;;;;;;8.23;7.40;;;20.10;1.00;;;;;;2615871;54;20434;-78
2022/05/13 13:58:51;;;;;;;6.57;5.97;;;20.40;1.00;;;;;;2615992;54;20414;-78
2022/05/13 14:04:58;;;;;;;7.00;6.30;;;21.20;1.00;;;;;;2616455;54;20425;-78
2022/05/13 14:11:12;;;;;;;6.30;5.33;;;20.70;1.00;;;;;;2615899;54;20488;-78
2022/05/13 14:21:10;;;;;;;5.67;5.17;;;20.10;1.00;;;;;;2618575;54;20383;-78
2022/05/13 14:27:04;;;;;;;6.17;5.67;;;21.10;1.00;;;;;;2616053;54;20396;-77
2022/05/13 14:32:56;;;;;;;7.03;5.17;;;21.90;1.00;;;;;;2616327;54;20396;-78
2022/05/13 14:42:44;;;;;;;7.13;5.60;;;21.50;1.00;;;;;;2616112;54;20414;-78
2022/05/13 14:48:49;;;;;;;7.70;5.00;;;21.50;1.00;;;;;;2616588;54;20411;-76
2022/05/13 14:54:58;;;;;;;7.40;4.20;;;21.80;1.00;;;;;;2616682;54;20154;-78
2022/05/13 15:04:56;;;;;;;7.07;3.90;;;21.60;1.00;;;;;;2616742;54;20425;-79
2022/05/13 15:10:45;;;;;;;6.47;3.87;;;21.50;1.00;;;;;;2616468;46;20447;-78
2022/05/13 15:16:34;;;;;;;4.30;3.87;;;22.20;1.00;;;;;;2617192;47;20388;-82
2022/05/13 15:22:27;;;;;;;5.53;4.20;;;22.30;1.00;;;;;;2617324;54;20160;-80
2022/05/13 15:28:19;;;;;;;8.83;3.77;;;22.10;1.00;;;;;;2618069;54;20411;-77
2022/05/13 15:34:07;;;;;;;7.00;4.37;;;21.90;1.00;;;;;;2617958;54;21466;-77
2022/05/13 15:39:55;;;;;;;6.50;3.57;;;21.60;1.00;;;;;;2617514;54;20158;-77
2022/05/13 16:03:03;;;;;;;4.70;4.30;;;21.90;1.00;;;;;;2614723;54;20430;-80
2022/05/13 16:12:41;;;;;;;10.07;4.50;;;22.00;1.00;;;;;;2615449;54;20399;-79
2022/05/13 16:29:24;;;;;;;5.83;3.70;;;21.40;1.00;;;;;;2616439;54;20406;-82
2022/05/13 16:35:31;;;;;;;4.40;4.00;;;21.50;1.00;;;;;;2616034;54;20455;-79
2022/05/13 16:41:37;;;;;;;8.27;5.17;;;21.70;1.00;;;;;;2616296;54;20406;-79
2022/05/13 16:51:15;;;;;;;4.30;3.47;;;21.80;1.00;;;;;;2616409;54;20429;-80
2022/05/13 17:00:48;;;;;;;5.43;3.77;;;21.60;1.00;;;;;;2617195;46;20536;-77
2022/05/13 17:06:54;;;;;;;5.17;4.77;;;21.50;1.00;;;;;;2616886;54;20943;-77
2022/05/13 17:19:26;;;;;;;6.83;4.00;;;20.90;1.00;;;;;;2616921;54;20437;-78
2022/05/13 17:25:33;;;;;;;9.33;4.43;;;20.30;1.00;;;;;;2616971;54;20413;-78
2022/05/13 17:35:05;;;;;;;4.00;3.60;;;19.90;1.00;;;;;;2617751;54;20406;-79
2022/05/13 17:40:55;;;;;;;6.90;4.53;;;19.80;1.00;;;;;;2616841;47;20395;-78
2022/05/13 17:46:42;;;;;;;5.97;3.93;;;19.80;1.00;;;;;;2616396;54;20412;-77
2022/05/13 18:07:14;;;;;;;5.57;3.60;;;19.30;1.00;;;;;;2616207;54;20568;-79
2022/05/13 18:21:14;;;;;;;9.63;4.30;;;19.20;1.00;;;;;;2616546;54;20531;-78
2022/05/13 18:27:21;;;;;;;4.87;3.73;;;19.10;1.00;;;;;;2616871;54;20542;-79
2022/05/13 18:33:28;;;;;;;5.80;3.17;;;19.00;1.00;;;;;;2617751;54;20408;-81
2022/05/13 18:49:40;;;;;;;7.83;3.27;;;18.60;1.00;;;;;;2616575;39;20753;-80
2022/05/13 18:55:29;;;;;;;3.90;3.10;;;18.60;1.40;;;;;;2618128;47;20401;-78
2022/05/13 19:01:18;;;;;;;6.73;3.83;;;18.40;2.20;;;;;;2617334;54;20433;-79
2022/05/13 19:10:47;;;;;;;8.00;3.43;;;18.10;4.10;;;;;;2618601;54;20435;-79
2022/05/13 19:16:54;;;;;;;7.57;3.67;;;18.00;4.00;;;;;;2618730;54;20416;-80
2022/05/13 19:23:01;;;;;;;6.77;3.50;;;17.80;5.80;;;;;;2619087;31;20634;-79
2022/05/13 19:29:08;;;;;;;4.10;3.73;;;17.70;7.00;;;;;;2617730;54;20156;-80
2022/05/13 19:35:16;;;;;;;7.17;3.57;;;17.40;8.40;;;;;;2618517;54;20142;-80
2022/05/13 19:41:23;;;;;;;8.70;3.70;;;17.20;11.20;;;;;;2617804;54;20390;-78
2022/05/13 19:47:30;;;;;;;9.87;4.63;;;17.20;12.30;;;;;;2617349;54;20420;-77
2022/05/13 19:53:37;;;;;;;6.13;3.70;;;17.10;14.40;;;;;;2618146;54;20182;-79
2022/05/13 19:59:44;;;;;;;6.40;5.13;;;17.00;15.80;;;;;;2617251;54;20455;-79
2022/05/13 20:12:35;;;;;;;6.90;4.20;;;16.80;19.50;;;;;;2618723;54;20448;-79
2022/05/13 20:18:42;;;;;;;7.13;4.67;;;16.70;20.40;;;;;;2618391;54;20591;-81
2022/05/13 20:24:49;;;;;;;9.87;4.63;;;16.60;22.00;;;;;;2616801;54;20712;-79
2022/05/13 20:30:56;;;;;;;8.80;5.00;;;16.40;25.70;;;;;;2617469;54;20203;-80
2022/05/13 20:37:03;;;;;;;7.03;4.10;;;16.30;27.60;;;;;;2618062;39;21028;-79
2022/05/13 20:43:10;;;;;;;9.73;4.20;;;16.30;29.40;;;;;;2618190;54;20420;-79
2022/05/13 20:49:18;;;;;;;8.13;4.20;;;16.20;30.50;;;;;;2617671;54;20452;-80
2022/05/13 20:55:25;;;;;;;13.37;4.07;;;16.30;30.00;;;;;;2617831;54;20594;-79
2022/05/13 21:01:33;;;;;;;7.53;3.70;;;16.40;30.40;;;;;;2617376;54;20398;-79
2022/05/13 21:11:21;;;;;;;5.93;4.20;;;16.00;34.20;;;;;;2616519;54;20415;-80
2022/05/13 21:17:29;;;;;;;8.60;3.83;;;16.00;34.10;;;;;;2617642;54;20422;-79
2022/05/13 21:23:36;;;;;;;5.67;4.07;;;16.00;34.80;;;;;;2617864;54;20412;-80
2022/05/13 21:29:43;;;;;;;5.80;3.70;;;15.80;40.70;;;;;;2617336;54;20539;-79
2022/05/13 21:42:16;;;;;;;6.63;4.23;;;15.30;54.40;;;;;;2616776;54;20423;-79
2022/05/13 21:48:23;;;;;;;5.43;4.70;;;15.20;58.00;;;;;;2617783;39;20666;-79
2022/05/13 21:54:32;;;;;;;6.03;4.03;;;15.10;62.20;;;;;;2618753;54;20406;-80
2022/05/13 22:11:04;;;;;;;5.00;4.20;;;14.80;75.80;;;;;;2618452;54;20411;-76
2022/05/13 22:17:11;;;;;;;8.10;4.90;;;14.40;91.50;;;;;;2617175;54;20395;-79
2022/05/13 22:26:40;;;;;;;6.47;5.07;;;14.20;96.30;;;;;;2617400;47;20404;-81
2022/05/13 22:32:27;;;;;;;8.53;6.23;;;14.10;99.90;;;;;;2616692;54;20412;-78
2022/05/13 22:49:18;;;;;;;13.47;5.77;;;14.00;99.90;;;;;;2616162;54;20467;-78
2022/05/13 22:55:25;;;;;;;6.90;5.40;;;14.00;99.90;;;;;;2617044;54;20435;-76
2022/05/13 23:01:32;;;;;;;11.13;5.93;;;13.80;99.90;;;;;;2616453;54;20153;-77
2022/05/13 23:11:25;;;;;;;11.40;5.73;;;13.40;99.90;;;;;;2616360;54;20449;-76
2022/05/13 23:17:31;;;;;;;8.33;5.13;;;13.30;99.90;;;;;;2618320;54;20411;-78
2022/05/13 23:23:40;;;;;;;8.13;5.50;;;13.00;99.90;;;;;;2617752;54;20446;-77
2022/05/13 23:29:46;;;;;;;11.67;6.23;;;13.00;99.90;;;;;;2619525;54;20435;-79
2022/05/13 23:35:53;;;;;;;8.10;6.50;;;12.70;99.90;;;;;;2617085;54;20706;-78
2022/05/13 23:42:00;;;;;;;14.80;6.33;;;12.80;99.90;;;;;;2617370;54;20174;-76
2022/05/13 23:48:07;;;;;;;8.50;6.27;;;12.70;99.90;;;;;;2618094;54;20659;-77
